TPOK1: Kansas River, State-Line, KS

                                SHEF ID:       TPOK1     MARAIS DES CYGNES R NR KS-MO ST
STATION TYPE:

STAGE STAGE(2) RIV-FLOW BAT-LOAD
ft ft cfs volt
Ccp-Rev Ccp-Rev Ccp-Rev Ccp-Rev
(America/Chicago)
06/24 00:00 9.84 9.95 3340 12.54
06/24 01:00 9.88 9.98 3369 12.52
06/24 02:00 9.88 9.97 3369 12.49
06/24 03:00 9.89 10.01 3376 12.50
06/24 04:00 9.92 10.02 3397 12.48
06/24 05:00 9.91 9.99 3390 12.46
06/24 06:00 9.92 10.02 3397 12.44
06/24 07:00 9.90 10.01 3383 12.45
06/24 08:00 9.91 9.98 3390 12.60
06/24 09:00 9.93 10.02 3404 12.96
06/24 10:00 9.92 9.97 3397 13.11
06/24 11:00 9.89 10.00 3376 13.31
06/24 12:00 9.87 9.97 3362 13.40
06/24 13:00 9.85 9.95 3347 ----
06/24 14:00 9.82 9.89 3326 13.17
06/24 15:00 9.81 9.89 3319 13.09
06/24 16:00 9.77 9.88 3290 13.07
06/24 17:00 9.73 9.85 3262 13.05
06/24 18:00 9.71 9.78 3248 13.03
06/24 19:00 9.67 9.77 3220 12.81
06/24 20:00 9.63 9.71 3192 12.67
06/24 21:00 9.59 9.65 3164 12.60
06/24 22:00 9.57 9.64 3150 12.60
06/24 23:00 9.49 9.60 3094 12.57
Data processed at Thu 25Jun2026 04:52 GMT

NOTICE: If you are parsing this page

Please convert to using our Data API. Starting early 2026 we will be migrating to: https://water.usace.army.mil with modern pages rendered in JavaScript. When this migration completes you will no longer be able to scrape this page! CWMSDataAPI (CDA)

Timeseries IDs (TSIDs)

TSIDs used from left to right in the data table
MKSL.Stage.Inst.1Hour.0.Ccp-Rev
MKSL.Stage-Alt.Inst.1Hour.0.Ccp-Rev
MKSL.Flow.Inst.1Hour.0.Ccp-Rev
MKSL.Volt-Battery Load.Inst.1Hour.0.Ccp-Rev

                            

All information presented herein is the property of the government of the United States of America and may be revised or deleted at any time without prior notice. Dissemination of this information without the expressed written consent of the Public Affairs Office, Tulsa District U.S. Army Corps of Engineers is strictly prohibited. These data are gathered electronically and, as presented, have NOT undergone any form of quality control. These data are NOT guaranteed to be valid or correct.